createdAt,value
2022-09-24T00:38:40.130Z,100.00
2022-09-24T00:39:42.167Z,100.00
2022-09-24T00:40:47.484Z,100.00
2022-09-24T00:41:49.491Z,100.00
2022-09-24T00:42:54.050Z,100.00
2022-09-24T00:43:56.716Z,100.00
2022-09-24T00:45:04.777Z,100.00
2022-09-24T00:46:13.502Z,100.00
2022-09-24T00:47:26.183Z,100.00
2022-09-24T00:48:28.343Z,100.00
2022-09-24T00:49:32.961Z,100.00
2022-09-24T00:50:35.921Z,100.00
2022-09-24T00:51:42.612Z,100.00
2022-09-24T00:52:48.641Z,100.00
2022-09-24T00:54:02.699Z,100.00
2022-09-24T00:55:05.824Z,100.00
2022-09-24T00:56:15.630Z,100.00
2022-09-24T00:57:17.771Z,100.00
2022-09-24T00:58:23.109Z,100.00
2022-09-24T00:59:26.062Z,100.00
2022-09-24T01:00:31.165Z,100.00
2022-09-24T01:01:33.425Z,100.00
2022-09-24T01:02:39.907Z,100.00
2022-09-24T01:03:42.615Z,100.00
2022-09-24T01:04:49.344Z,100.00
2022-09-24T01:05:53.787Z,100.00
2022-09-24T01:06:59.385Z,100.00
2022-09-24T01:08:01.830Z,100.00
2022-09-24T01:09:08.991Z,100.00
2022-09-24T01:10:11.308Z,100.00
2022-09-24T01:11:41.240Z,100.00
2022-09-24T01:12:53.804Z,100.00
2022-09-24T01:14:12.570Z,100.00
2022-09-24T01:15:27.339Z,100.00
2022-09-24T01:16:38.271Z,100.00
2022-09-24T01:17:51.322Z,100.00
2022-09-24T01:19:05.840Z,100.00
2022-09-24T01:20:29.809Z,100.00
2022-09-24T01:21:39.492Z,100.00
2022-09-24T01:22:57.512Z,100.00
2022-09-24T01:24:25.200Z,100.00
2022-09-24T01:25:40.432Z,100.00
2022-09-24T01:26:57.636Z,100.00
2022-09-24T01:28:16.633Z,100.00
2022-09-24T01:29:42.280Z,100.00
2022-09-24T01:30:48.336Z,100.00
2022-09-24T01:31:57.132Z,100.00
2022-09-24T01:33:05.033Z,100.00
2022-09-24T01:34:09.306Z,100.00
2022-09-24T01:35:18.888Z,100.00
2022-09-24T01:36:23.085Z,100.00
2022-09-24T01:37:31.531Z,100.00
2022-09-24T01:38:38.675Z,100.00
2022-09-24T01:39:47.558Z,100.00
2022-09-24T01:40:51.995Z,100.00
2022-09-24T01:41:57.444Z,100.00
2022-09-24T01:43:02.409Z,100.00
2022-09-24T01:44:09.482Z,100.00
2022-09-24T01:45:14.900Z,100.00
2022-09-24T01:46:22.389Z,100.00
2022-09-24T01:47:34.379Z,100.00
2022-09-24T01:48:40.460Z,100.00
2022-09-24T01:49:42.695Z,100.00
2022-09-24T01:50:54.663Z,100.00
2022-09-24T01:52:01.477Z,100.00
2022-09-24T01:53:12.820Z,100.00
2022-09-24T01:54:21.166Z,100.00
2022-09-24T01:55:31.292Z,100.00
2022-09-24T01:56:38.971Z,100.00
2022-09-24T01:57:48.032Z,100.00
2022-09-24T01:58:53.885Z,100.00
2022-09-24T02:00:02.331Z,100.00
2022-09-24T02:01:10.848Z,100.00
2022-09-24T02:02:21.261Z,100.00
2022-09-24T02:03:29.892Z,100.00
2022-09-24T02:04:38.685Z,100.00
2022-09-24T02:05:51.005Z,100.00
2022-09-24T02:06:57.294Z,100.00
2022-09-24T02:08:08.826Z,100.00
2022-09-24T02:09:29.487Z,100.00
2022-09-24T02:10:38.778Z,100.00
2022-09-24T02:11:40.774Z,100.00
2022-09-24T02:12:48.849Z,100.00
2022-09-24T02:13:57.370Z,100.00
2022-09-24T02:15:05.947Z,100.00
2022-09-24T02:16:16.317Z,100.00
2022-09-24T02:17:21.970Z,100.00
2022-09-24T02:18:28.639Z,100.00
2022-09-24T02:19:37.525Z,100.00
2022-09-24T02:20:42.594Z,100.00
2022-09-24T02:21:49.003Z,100.00
2022-09-24T02:22:54.975Z,100.00
2022-09-24T02:24:04.610Z,100.00
2022-09-24T02:25:10.834Z,100.00
2022-09-24T02:26:16.305Z,100.00
2022-09-24T02:27:19.523Z,100.00
2022-09-24T02:28:24.307Z,100.00
2022-09-24T02:29:26.850Z,100.00
2022-09-24T02:30:32.266Z,100.00
2022-09-24T02:31:40.841Z,100.00
2022-09-24T02:32:47.247Z,100.00
2022-09-24T02:34:06.148Z,100.00
2022-09-24T02:35:11.239Z,100.00
2022-09-24T02:36:13.597Z,100.00
2022-09-24T02:37:20.416Z,100.00
2022-09-24T02:38:23.272Z,100.00
2022-09-24T02:39:28.307Z,100.00
2022-09-24T02:40:30.371Z,100.00
2022-09-24T02:41:35.390Z,100.00
2022-09-24T02:42:37.966Z,100.00
2022-09-24T02:43:42.535Z,100.00
2022-09-24T02:44:44.499Z,100.00
2022-09-24T02:45:49.116Z,100.00
2022-09-24T02:46:53.747Z,100.00
2022-09-24T02:47:58.335Z,100.00
2022-09-24T02:49:00.287Z,100.00
2022-09-24T02:50:04.806Z,100.00
2022-09-24T02:51:06.999Z,100.00
2022-09-24T02:52:12.078Z,100.00
2022-09-24T02:53:14.056Z,100.00
2022-09-24T02:54:18.899Z,100.00
2022-09-24T02:55:21.607Z,100.00
2022-09-24T02:56:26.137Z,100.00
2022-09-24T02:57:28.099Z,100.00
2022-09-24T02:58:33.493Z,100.00
2022-09-24T02:59:36.472Z,100.00
2022-09-24T03:00:41.470Z,100.00
2022-09-24T03:01:46.569Z,100.00
2022-09-24T03:02:54.034Z,100.00
2022-09-24T03:03:56.264Z,100.00
2022-09-24T03:05:00.822Z,100.00
2022-09-24T03:06:02.794Z,100.00
2022-09-24T03:07:07.842Z,100.00
2022-09-24T03:08:09.808Z,100.00
2022-09-24T03:09:15.122Z,100.00
2022-09-24T03:10:17.391Z,100.00
2022-09-24T03:11:22.736Z,100.00
2022-09-24T03:12:27.306Z,100.00
2022-09-24T03:13:29.365Z,100.00
2022-09-24T03:14:33.864Z,100.00
2022-09-24T03:15:35.859Z,100.00
2022-09-24T03:16:40.489Z,100.00
2022-09-24T03:17:42.434Z,100.00
2022-09-24T03:18:50.185Z,100.00
2022-09-24T03:19:52.123Z,100.00
2022-09-24T03:21:00.122Z,100.00
2022-09-24T03:22:02.317Z,100.00
2022-09-24T03:23:07.416Z,100.00
2022-09-24T03:24:09.616Z,100.00
2022-09-24T03:25:14.218Z,100.00
2022-09-24T03:26:18.019Z,100.00
2022-09-24T03:27:22.852Z,100.00
2022-09-24T03:28:24.955Z,100.00
2022-09-24T03:29:41.762Z,100.00
2022-09-24T03:31:02.716Z,100.00
2022-09-24T03:32:04.908Z,100.00
2022-09-24T03:33:06.869Z,100.00
2022-09-24T03:34:13.908Z,100.00
2022-09-24T03:35:16.105Z,100.00
2022-09-24T03:36:22.890Z,100.00
2022-09-24T03:37:24.875Z,100.00
2022-09-24T03:38:30.243Z,100.00
2022-09-24T03:39:32.188Z,100.00
2022-09-24T03:40:36.928Z,100.00
2022-09-24T03:41:41.715Z,100.00
2022-09-24T03:42:43.865Z,100.00
2022-09-24T03:43:48.633Z,100.00
2022-09-24T03:44:51.093Z,100.00
2022-09-24T03:45:56.089Z,100.00
2022-09-24T03:46:58.079Z,100.00
2022-09-24T03:48:02.664Z,100.00
2022-09-24T03:49:04.610Z,100.00
2022-09-24T03:50:12.721Z,100.00
2022-09-24T03:51:18.716Z,100.00
2022-09-24T03:52:23.357Z,100.00
2022-09-24T03:53:25.345Z,100.00
2022-09-24T03:54:30.045Z,100.00
2022-09-24T03:55:32.905Z,100.00
2022-09-24T03:56:37.472Z,100.00
2022-09-24T03:57:39.517Z,100.00
2022-09-24T03:58:48.235Z,100.00
2022-09-24T03:59:54.258Z,100.00
2022-09-24T04:00:59.208Z,100.00
2022-09-24T04:02:01.305Z,100.00
2022-09-24T04:03:05.968Z,100.00
2022-09-24T04:04:08.028Z,100.00
2022-09-24T04:05:15.804Z,100.00
2022-09-24T04:06:23.427Z,100.00
2022-09-24T04:07:29.562Z,100.00
2022-09-24T04:08:32.198Z,100.00
2022-09-24T04:09:36.826Z,100.00
2022-09-24T04:10:38.791Z,100.00
2022-09-24T04:11:43.552Z,100.00
2022-09-24T04:12:46.193Z,100.00
2022-09-24T04:13:50.768Z,100.00
2022-09-24T04:14:52.733Z,100.00
2022-09-24T04:15:57.426Z,100.00
2022-09-24T04:16:59.540Z,100.00
2022-09-24T04:18:04.169Z,100.00
2022-09-24T04:19:08.208Z,100.00
2022-09-24T04:20:15.587Z,100.00
2022-09-24T04:21:17.548Z,100.00
2022-09-24T04:22:22.451Z,100.00
2022-09-24T04:23:27.030Z,100.00
2022-09-24T04:24:28.969Z,100.00
2022-09-24T04:25:35.074Z,100.00
2022-09-24T04:26:37.095Z,100.00
2022-09-24T04:27:41.647Z,100.00
2022-09-24T04:28:43.618Z,100.00
2022-09-24T04:29:48.216Z,100.00
2022-09-24T04:30:50.235Z,100.00
2022-09-24T04:31:54.886Z,100.00
2022-09-24T04:33:00.340Z,100.00
2022-09-24T04:34:04.962Z,100.00
2022-09-24T04:35:08.467Z,100.00
2022-09-24T04:36:15.541Z,100.00
2022-09-24T04:37:17.506Z,100.00
2022-09-24T04:38:22.134Z,100.00
2022-09-24T04:39:26.870Z,100.00
2022-09-24T04:40:31.628Z,100.00
2022-09-24T04:41:35.143Z,100.00
2022-09-24T04:42:40.259Z,100.00
2022-09-24T04:43:43.022Z,100.00
2022-09-24T04:44:51.713Z,100.00
2022-09-24T04:45:57.116Z,100.00
2022-09-24T04:47:03.102Z,100.00
2022-09-24T04:48:05.635Z,100.00
2022-09-24T04:49:11.879Z,100.00
2022-09-24T04:50:14.157Z,100.00
2022-09-24T04:51:22.137Z,100.00
2022-09-24T04:52:26.890Z,100.00
2022-09-24T04:53:31.467Z,100.00
2022-09-24T04:54:33.750Z,100.00
2022-09-24T04:55:38.317Z,100.00
2022-09-24T04:56:40.342Z,100.00
2022-09-24T04:57:45.249Z,100.00
2022-09-24T04:58:50.697Z,100.00
2022-09-24T04:59:57.870Z,100.00
2022-09-24T05:01:04.834Z,100.00
2022-09-24T05:02:09.665Z,100.00
2022-09-24T05:03:14.597Z,100.00
2022-09-24T05:04:17.198Z,100.00
2022-09-24T05:05:21.747Z,100.00
2022-09-24T05:06:26.410Z,100.00
2022-09-24T05:07:34.042Z,100.00
2022-09-24T05:08:36.023Z,100.00
2022-09-24T05:09:40.682Z,100.00
2022-09-24T05:10:43.280Z,100.00
2022-09-24T05:11:47.815Z,100.00
2022-09-24T05:12:49.788Z,100.00
2022-09-24T05:13:54.437Z,100.00
2022-09-24T05:14:56.408Z,100.00
2022-09-24T05:16:01.362Z,100.00
2022-09-24T05:17:03.360Z,100.00
2022-09-24T05:18:09.033Z,100.00
2022-09-24T05:19:11.065Z,100.00
2022-09-24T05:20:16.861Z,100.00
2022-09-24T05:21:18.848Z,100.00
2022-09-24T05:22:27.508Z,100.00
2022-09-24T05:23:29.529Z,100.00
2022-09-24T05:24:34.248Z,100.00
2022-09-24T05:25:56.322Z,100.00
2022-09-24T05:27:10.572Z,100.00
2022-09-24T05:28:15.410Z,100.00
2022-09-24T05:29:17.390Z,100.00
2022-09-24T05:30:23.818Z,100.00
2022-09-24T05:31:25.853Z,100.00
2022-09-24T05:32:30.473Z,100.00
2022-09-24T05:33:32.489Z,100.00
2022-09-24T05:34:37.265Z,100.00
2022-09-24T05:35:39.367Z,100.00
2022-09-24T05:36:44.743Z,100.00
2022-09-24T05:37:53.865Z,100.00
2022-09-24T05:38:56.112Z,100.00
2022-09-24T05:40:20.808Z,100.00
2022-09-24T05:41:22.882Z,100.00
2022-09-24T05:42:27.471Z,100.00
2022-09-24T05:43:29.589Z,100.00
2022-09-24T05:44:34.546Z,100.00
2022-09-24T05:45:36.576Z,100.00
2022-09-24T05:46:41.185Z,100.00
2022-09-24T05:47:43.220Z,100.00
2022-09-24T05:48:47.826Z,100.00
2022-09-24T05:49:49.811Z,100.00
2022-09-24T05:50:55.424Z,100.00
2022-09-24T05:51:57.521Z,100.00
2022-09-24T05:53:04.850Z,100.00
2022-09-24T05:54:07.165Z,100.00
2022-09-24T05:55:15.919Z,100.00
2022-09-24T05:56:20.979Z,100.00
2022-09-24T05:57:22.978Z,100.00
2022-09-24T05:58:27.853Z,100.00
2022-09-24T05:59:29.903Z,100.00
2022-09-24T06:00:35.684Z,100.00
2022-09-24T06:01:37.935Z,100.00
2022-09-24T06:02:42.680Z,100.00
2022-09-24T06:03:44.742Z,100.00
2022-09-24T06:04:49.322Z,100.00
2022-09-24T06:05:52.069Z,100.00
2022-09-24T06:06:56.937Z,100.00
2022-09-24T06:08:02.259Z,100.00
2022-09-24T06:09:09.017Z,100.00
2022-09-24T06:10:11.457Z,100.00
2022-09-24T06:11:16.025Z,100.00
2022-09-24T06:12:22.302Z,100.00
2022-09-24T06:13:27.052Z,100.00
2022-09-24T06:14:29.285Z,100.00
2022-09-24T06:15:35.125Z,100.00
2022-09-24T06:16:39.842Z,100.00
2022-09-24T06:17:41.895Z,100.00
2022-09-24T06:18:47.412Z,100.00
2022-09-24T06:19:49.441Z,100.00
2022-09-24T06:20:54.920Z,100.00
2022-09-24T06:22:00.189Z,100.00
2022-09-24T06:23:06.630Z,100.00
2022-09-24T06:24:11.665Z,100.00
2022-09-24T06:25:14.021Z,100.00
2022-09-24T06:26:18.970Z,100.00
2022-09-24T06:27:21.068Z,100.00
2022-09-24T06:28:25.743Z,100.00
2022-09-24T06:29:27.854Z,100.00
2022-09-24T06:30:35.693Z,100.00
2022-09-24T06:31:37.871Z,100.00
2022-09-24T06:32:42.545Z,100.00
2022-09-24T06:33:44.676Z,100.00
2022-09-24T06:34:49.497Z,100.00
2022-09-24T06:35:51.649Z,100.00
2022-09-24T06:36:57.240Z,100.00
2022-09-24T06:37:59.299Z,100.00
2022-09-24T06:39:08.058Z,100.00
2022-09-24T06:40:10.793Z,100.00
2022-09-24T06:41:15.676Z,100.00
2022-09-24T06:42:17.646Z,100.00
2022-09-24T06:43:22.388Z,100.00
2022-09-24T06:44:24.363Z,100.00
2022-09-24T06:45:29.414Z,100.00
2022-09-24T06:46:34.057Z,100.00
2022-09-24T06:47:36.264Z,100.00
2022-09-24T06:48:41.368Z,100.00
2022-09-24T06:49:43.308Z,100.00
2022-09-24T06:50:48.231Z,100.00
2022-09-24T06:51:51.073Z,100.00
2022-09-24T06:52:55.906Z,100.00
2022-09-24T06:54:00.454Z,100.00
2022-09-24T06:55:05.964Z,100.00
2022-09-24T06:56:10.519Z,100.00
2022-09-24T06:57:12.788Z,100.00
2022-09-24T06:58:20.169Z,100.00
2022-09-24T06:59:24.872Z,100.00
2022-09-24T07:00:26.958Z,100.00
2022-09-24T07:01:31.610Z,100.00
2022-09-24T07:02:36.615Z,100.00
2022-09-24T07:03:41.792Z,100.00
2022-09-24T07:04:43.858Z,100.00
2022-09-24T07:05:48.423Z,100.00
2022-09-24T07:07:05.413Z,100.00
2022-09-24T07:08:10.035Z,100.00
2022-09-24T07:09:12.771Z,100.00
2022-09-24T07:10:20.152Z,100.00
2022-09-24T07:11:24.954Z,100.00
2022-09-24T07:12:26.924Z,100.00
2022-09-24T07:13:31.559Z,100.00
2022-09-24T07:14:33.570Z,100.00
2022-09-24T07:15:38.271Z,100.00
2022-09-24T07:16:40.352Z,100.00
2022-09-24T07:17:44.880Z,100.00
2022-09-24T07:18:46.875Z,100.00
2022-09-24T07:19:51.543Z,100.00
2022-09-24T07:20:56.720Z,100.00
2022-09-24T07:21:58.956Z,100.00
2022-09-24T07:23:03.769Z,100.00
2022-09-24T07:24:06.332Z,100.00
2022-09-24T07:25:13.518Z,100.00
2022-09-24T07:26:20.699Z,100.00
2022-09-24T07:27:22.696Z,100.00
2022-09-24T07:28:27.332Z,100.00
2022-09-24T07:29:29.277Z,100.00
2022-09-24T07:30:34.475Z,100.00
2022-09-24T07:31:36.880Z,100.00
2022-09-24T07:32:41.866Z,100.00
2022-09-24T07:33:43.914Z,100.00
2022-09-24T07:34:48.805Z,100.00
2022-09-24T07:35:51.226Z,100.00
2022-09-24T07:36:57.262Z,100.00
2022-09-24T07:38:01.073Z,100.00
2022-09-24T07:39:05.923Z,100.00
2022-09-24T07:40:09.361Z,100.00
2022-09-24T07:41:13.951Z,100.00
2022-09-24T07:42:18.819Z,100.00
2022-09-24T07:43:24.248Z,100.00
2022-09-24T07:44:26.269Z,100.00
2022-09-24T07:45:32.469Z,100.00
2022-09-24T07:46:34.688Z,100.00
2022-09-24T07:47:39.804Z,100.00
2022-09-24T07:48:41.853Z,100.00
2022-09-24T07:49:46.625Z,100.00
2022-09-24T07:50:48.610Z,100.00
2022-09-24T07:51:54.171Z,100.00
2022-09-24T07:52:59.440Z,100.00
2022-09-24T07:54:04.642Z,100.00
2022-09-24T07:55:10.921Z,100.00
2022-09-24T07:56:12.941Z,100.00
2022-09-24T07:57:17.533Z,100.00
2022-09-24T07:58:22.129Z,100.00
2022-09-24T07:59:26.783Z,100.00
2022-09-24T08:00:28.774Z,100.00
2022-09-24T08:01:34.444Z,100.00
2022-09-24T08:02:36.717Z,100.00
2022-09-24T08:03:41.404Z,100.00
2022-09-24T08:04:43.714Z,100.00
2022-09-24T08:05:48.623Z,100.00
2022-09-24T08:06:50.592Z,100.00
2022-09-24T08:07:56.189Z,100.00
2022-09-24T08:08:58.183Z,100.00
2022-09-24T08:10:02.977Z,100.00
2022-09-24T08:11:07.794Z,100.00
2022-09-24T08:12:10.140Z,100.00
2022-09-24T08:13:14.922Z,100.00
2022-09-24T08:14:19.906Z,100.00
2022-09-24T08:15:24.991Z,100.00
2022-09-24T08:16:29.861Z,100.00
2022-09-24T08:17:32.015Z,100.00
2022-09-24T08:18:37.107Z,100.00
2022-09-24T08:19:43.326Z,100.00
2022-09-24T08:20:47.903Z,100.00
2022-09-24T08:21:50.371Z,100.00
2022-09-24T08:22:54.923Z,100.00
2022-09-24T08:23:56.912Z,100.00
2022-09-24T08:25:03.196Z,100.00
2022-09-24T08:26:06.119Z,100.00
2022-09-24T08:27:15.012Z,100.00
2022-09-24T08:28:19.970Z,100.00
2022-09-24T08:29:27.093Z,100.00
2022-09-24T08:30:29.707Z,100.00
2022-09-24T08:31:34.911Z,100.00
2022-09-24T08:32:36.950Z,100.00
2022-09-24T08:33:43.941Z,100.00
2022-09-24T08:34:45.902Z,100.00
2022-09-24T08:35:50.706Z,100.00
2022-09-24T08:36:55.410Z,100.00
2022-09-24T08:38:01.364Z,100.00
2022-09-24T08:39:07.023Z,100.00
2022-09-24T08:40:17.155Z,100.00
2022-09-24T08:41:35.983Z,100.00
2022-09-24T08:42:49.421Z,100.00
2022-09-24T08:44:00.529Z,100.00
2022-09-24T08:45:21.421Z,100.00
2022-09-24T08:46:43.786Z,100.00
2022-09-24T08:47:49.280Z,100.00
2022-09-24T08:48:56.327Z,100.00
2022-09-24T08:50:10.235Z,100.00
2022-09-24T08:51:20.250Z,100.00
2022-09-24T08:52:31.461Z,100.00
2022-09-24T08:53:48.790Z,100.00
2022-09-24T08:54:53.217Z,100.00
2022-09-24T08:56:01.499Z,100.00
2022-09-24T08:57:11.931Z,100.00
2022-09-24T08:58:31.607Z,100.00
2022-09-24T08:59:36.546Z,100.00
2022-09-24T09:00:52.885Z,100.00
2022-09-24T09:02:03.105Z,100.00
2022-09-24T09:03:15.223Z,100.00
2022-09-24T09:04:26.515Z,100.00
2022-09-24T09:05:50.410Z,100.00
2022-09-24T09:07:14.413Z,100.00
2022-09-24T09:08:50.534Z,100.00
2022-09-24T09:09:56.593Z,100.00
2022-09-24T09:11:02.366Z,100.00
2022-09-24T09:12:14.646Z,100.00
2022-09-24T09:13:24.111Z,100.00
2022-09-24T09:14:42.433Z,100.00
2022-09-24T09:15:55.000Z,100.00
2022-09-24T09:17:05.070Z,100.00
2022-09-24T09:18:15.604Z,100.00
2022-09-24T09:19:23.353Z,100.00
2022-09-24T09:20:31.948Z,100.00
2022-09-24T09:21:42.679Z,100.00
2022-09-24T09:22:48.349Z,100.00
2022-09-24T09:23:54.711Z,100.00
2022-09-24T09:25:04.412Z,100.00
2022-09-24T09:26:14.231Z,100.00
2022-09-24T09:27:18.458Z,100.00
2022-09-24T09:28:23.526Z,100.00
2022-09-24T09:29:28.300Z,100.00
2022-09-24T09:30:43.630Z,100.00
2022-09-24T09:31:58.776Z,100.00
2022-09-24T09:33:18.847Z,100.00
2022-09-24T09:34:36.701Z,100.00
2022-09-24T09:35:49.254Z,100.00
2022-09-24T09:37:05.077Z,100.00
2022-09-24T09:38:19.655Z,100.00
2022-09-24T09:39:39.002Z,100.00
2022-09-24T09:40:48.548Z,100.00
2022-09-24T09:41:56.735Z,100.00
2022-09-24T09:43:05.745Z,100.00
2022-09-24T09:44:14.268Z,100.00
2022-09-24T09:45:29.742Z,100.00
2022-09-24T09:46:38.079Z,100.00
2022-09-24T09:47:50.943Z,100.00
2022-09-24T09:49:00.095Z,100.00
2022-09-24T09:50:08.707Z,100.00
2022-09-24T09:51:22.342Z,100.00
2022-09-24T09:52:28.829Z,100.00
2022-09-24T09:53:34.210Z,100.00
2022-09-24T09:54:37.187Z,100.00
2022-09-24T09:55:41.744Z,100.00
2022-09-24T09:56:47.475Z,100.00
2022-09-24T09:57:53.248Z,100.00
2022-09-24T09:59:07.438Z,100.00
2022-09-24T10:00:25.784Z,100.00
2022-09-24T10:01:35.035Z,100.00
2022-09-24T10:02:46.199Z,100.00
2022-09-24T10:03:50.990Z,100.00
2022-09-24T10:04:58.983Z,100.00
2022-09-24T10:06:03.609Z,100.00
2022-09-24T10:07:10.751Z,100.00
2022-09-24T10:08:24.371Z,100.00
2022-09-24T10:09:26.435Z,100.00
2022-09-24T10:10:31.917Z,100.00
2022-09-24T10:11:34.141Z,100.00
2022-09-24T10:12:38.876Z,100.00
2022-09-24T10:13:40.876Z,100.00
2022-09-24T10:14:45.943Z,100.00
2022-09-24T10:15:56.133Z,100.00
2022-09-24T10:17:05.354Z,100.00
2022-09-24T10:18:17.182Z,100.00
2022-09-24T10:19:23.697Z,100.00
2022-09-24T10:20:32.769Z,100.00
2022-09-24T10:21:37.240Z,100.00
2022-09-24T10:22:42.696Z,100.00
2022-09-24T10:23:48.645Z,100.00
2022-09-24T10:24:54.364Z,100.00
2022-09-24T10:26:02.572Z,100.00
2022-09-24T10:27:12.180Z,100.00
2022-09-24T10:28:35.110Z,100.00
2022-09-24T10:29:52.168Z,100.00
2022-09-24T10:31:01.762Z,99.65
2022-09-24T10:32:05.448Z,95.81
2022-09-24T10:33:10.434Z,100.00
2022-09-24T10:34:24.786Z,99.97
2022-09-24T10:35:31.681Z,100.00
2022-09-24T10:36:33.734Z,100.00
2022-09-24T10:37:38.605Z,100.00
2022-09-24T10:38:40.665Z,100.00
2022-09-24T10:39:45.429Z,99.85
2022-09-24T10:40:48.193Z,100.00
2022-09-24T10:41:54.805Z,93.47
2022-09-24T10:42:59.061Z,93.56
2022-09-24T10:44:06.450Z,93.64
2022-09-24T10:45:14.097Z,89.52
2022-09-24T10:46:40.749Z,97.99
2022-09-24T10:47:51.097Z,96.87
2022-09-24T10:49:06.988Z,99.69
2022-09-24T10:50:40.588Z,98.24
2022-09-24T10:51:54.491Z,97.15
2022-09-24T10:53:06.583Z,99.77
2022-09-24T10:54:28.015Z,99.08
2022-09-24T10:55:55.502Z,100.00
2022-09-24T10:57:00.127Z,100.00
2022-09-24T10:58:10.276Z,100.00
2022-09-24T10:59:29.716Z,100.00
2022-09-24T11:00:41.819Z,96.56
2022-09-24T11:01:52.454Z,98.42
2022-09-24T11:03:32.325Z,96.99
2022-09-24T11:04:47.880Z,92.06
2022-09-24T11:05:59.261Z,92.40
2022-09-24T11:07:31.547Z,100.00
2022-09-24T11:08:46.226Z,98.36
2022-09-24T11:09:56.174Z,100.00
2022-09-24T11:11:24.527Z,100.00
2022-09-24T11:12:31.942Z,100.00
2022-09-24T11:13:46.865Z,100.00
2022-09-24T11:15:12.019Z,100.00
2022-09-24T11:16:41.857Z,100.00
2022-09-24T11:17:55.183Z,100.00
2022-09-24T11:19:04.519Z,100.00
